createdAt,value
2022-11-27T00:01:59.717Z,10.15
2022-11-27T00:04:32.331Z,10.18
2022-11-27T00:07:04.939Z,10.18
2022-11-27T00:09:39.752Z,10.13
2022-11-27T00:12:12.569Z,10.19
2022-11-27T00:14:45.447Z,10.20
2022-11-27T00:17:18.226Z,10.18
2022-11-27T00:19:50.947Z,10.12
2022-11-27T00:22:23.481Z,10.18
2022-11-27T00:24:57.506Z,10.09
2022-11-27T00:27:30.017Z,10.13
2022-11-27T00:30:02.809Z,10.13
2022-11-27T00:32:35.396Z,10.08
2022-11-27T00:35:08.305Z,10.09
2022-11-27T00:37:41.088Z,9.96
2022-11-27T00:40:16.580Z,10.06
2022-11-27T00:42:49.277Z,10.05
2022-11-27T00:45:21.911Z,9.97
2022-11-27T00:47:54.584Z,9.98
2022-11-27T00:50:27.407Z,10.00
2022-11-27T00:53:00.296Z,10.01
2022-11-27T00:55:34.502Z,9.98
2022-11-27T00:58:07.344Z,10.08
2022-11-27T01:00:39.931Z,10.14
2022-11-27T01:03:12.750Z,10.20
2022-11-27T01:05:45.447Z,10.12
2022-11-27T01:08:19.414Z,10.02
2022-11-27T01:10:55.030Z,10.07
2022-11-27T01:13:29.204Z,10.04
2022-11-27T01:16:04.566Z,10.08
2022-11-27T01:18:38.035Z,10.15
2022-11-27T01:21:10.829Z,10.07
2022-11-27T01:23:43.691Z,10.10
2022-11-27T01:26:18.767Z,10.07
2022-11-27T01:28:52.525Z,10.13
2022-11-27T01:31:26.981Z,10.10
2022-11-27T01:34:00.487Z,10.18
2022-11-27T01:36:34.084Z,10.21
2022-11-27T01:39:06.623Z,10.15
2022-11-27T01:41:40.988Z,10.28
2022-11-27T01:44:32.279Z,10.22
2022-11-27T01:47:06.220Z,10.17
2022-11-27T01:49:39.991Z,10.11
2022-11-27T01:52:14.450Z,10.17
2022-11-27T01:54:49.489Z,10.15
2022-11-27T01:57:24.712Z,10.21
2022-11-27T01:59:58.857Z,10.22
2022-11-27T02:02:31.571Z,10.20
2022-11-27T02:05:04.426Z,10.16
2022-11-27T02:07:37.395Z,10.20
2022-11-27T02:10:10.659Z,10.09
2022-11-27T02:12:48.540Z,10.04
2022-11-27T02:15:24.408Z,10.12
2022-11-27T02:18:02.102Z,10.10
2022-11-27T02:20:41.170Z,10.00
2022-11-27T02:23:28.694Z,9.98
2022-11-27T02:26:11.913Z,10.00
2022-11-27T02:28:55.192Z,10.03
2022-11-27T02:31:33.965Z,9.98
2022-11-27T02:34:11.604Z,10.01
2022-11-27T02:36:50.168Z,10.02
2022-11-27T02:39:25.490Z,10.04
2022-11-27T02:42:02.195Z,10.03
2022-11-27T02:44:36.866Z,9.98
2022-11-27T02:47:09.883Z,10.01
2022-11-27T02:49:44.028Z,10.09
2022-11-27T02:52:18.772Z,10.10
2022-11-27T02:54:52.899Z,10.04
2022-11-27T02:57:26.998Z,10.04
2022-11-27T03:00:02.199Z,10.04
2022-11-27T03:02:37.345Z,10.09
2022-11-27T03:05:11.963Z,10.01
2022-11-27T03:07:47.716Z,10.00
2022-11-27T03:10:22.743Z,10.03
2022-11-27T03:12:55.336Z,9.99
2022-11-27T03:15:30.144Z,10.01
2022-11-27T03:18:07.838Z,10.01
2022-11-27T03:20:42.391Z,10.00
2022-11-27T03:23:15.014Z,9.95
2022-11-27T03:25:47.667Z,9.95
2022-11-27T03:28:20.455Z,9.98
2022-11-27T03:30:54.490Z,9.97
2022-11-27T03:33:27.268Z,9.97
2022-11-27T03:35:59.895Z,10.06
2022-11-27T03:38:32.612Z,9.94
2022-11-27T03:41:08.485Z,10.07
2022-11-27T03:43:45.880Z,10.00
2022-11-27T03:46:25.297Z,10.01
2022-11-27T03:49:00.312Z,9.89
2022-11-27T03:51:38.051Z,9.99
2022-11-27T03:54:14.051Z,9.96
2022-11-27T03:56:51.593Z,9.93
2022-11-27T03:59:25.163Z,9.94
2022-11-27T04:01:59.599Z,9.95
2022-11-27T04:04:32.279Z,9.97
2022-11-27T04:07:04.936Z,10.01
2022-11-27T04:09:37.684Z,10.01
2022-11-27T04:12:10.469Z,10.01
2022-11-27T04:14:43.158Z,9.96
2022-11-27T04:17:17.169Z,9.95
2022-11-27T04:19:50.111Z,10.03
2022-11-27T04:22:22.953Z,10.01
2022-11-27T04:24:55.979Z,9.95
2022-11-27T04:27:28.589Z,9.94
2022-11-27T04:30:01.265Z,9.98
2022-11-27T04:32:35.284Z,9.95
2022-11-27T04:35:08.519Z,10.06
2022-11-27T04:37:41.414Z,10.05
2022-11-27T04:40:14.645Z,10.04
2022-11-27T04:42:47.212Z,10.14
2022-11-27T04:45:20.013Z,10.09
2022-11-27T04:47:54.037Z,10.07
2022-11-27T04:50:26.556Z,10.01
2022-11-27T04:53:00.013Z,10.09
2022-11-27T04:55:32.635Z,10.13
2022-11-27T04:58:05.404Z,10.10
2022-11-27T05:00:38.058Z,10.16
2022-11-27T05:03:12.337Z,10.12
2022-11-27T05:05:44.946Z,10.01
2022-11-27T05:08:17.482Z,10.03
2022-11-27T05:10:58.957Z,10.16
2022-11-27T05:13:32.097Z,10.11
2022-11-27T05:16:05.337Z,10.08
2022-11-27T05:18:39.338Z,9.95
2022-11-27T05:21:11.981Z,10.04
2022-11-27T05:23:45.033Z,10.02
2022-11-27T05:26:17.737Z,10.02
2022-11-27T05:28:52.419Z,10.09
2022-11-27T05:31:25.353Z,10.03
2022-11-27T05:33:59.597Z,10.03
2022-11-27T05:36:32.571Z,10.07
2022-11-27T05:39:07.176Z,10.08
2022-11-27T05:41:40.361Z,10.04
2022-11-27T05:44:13.892Z,10.01
2022-11-27T05:46:46.619Z,9.90
2022-11-27T05:49:21.678Z,9.94
2022-11-27T05:51:54.192Z,9.96
2022-11-27T05:54:26.841Z,9.93
2022-11-27T05:56:59.359Z,10.07
2022-11-27T05:59:31.882Z,10.10
2022-11-27T06:02:04.875Z,10.02
2022-11-27T06:04:39.322Z,10.04
2022-11-27T06:07:12.194Z,9.96
2022-11-27T06:09:44.758Z,9.82
2022-11-27T06:12:17.450Z,10.01
2022-11-27T06:14:50.130Z,10.15
2022-11-27T06:17:22.685Z,10.10
2022-11-27T06:19:56.708Z,10.03
2022-11-27T06:22:29.758Z,10.02
2022-11-27T06:25:02.686Z,10.02
2022-11-27T06:27:35.781Z,9.96
2022-11-27T06:30:08.936Z,9.91
2022-11-27T06:32:41.699Z,10.01
2022-11-27T06:35:15.818Z,9.95
2022-11-27T06:37:50.367Z,9.91
2022-11-27T06:40:23.422Z,9.99
2022-11-27T06:42:56.028Z,9.98
2022-11-27T06:45:28.989Z,9.90
2022-11-27T06:48:01.579Z,9.92
2022-11-27T06:50:36.460Z,10.00
2022-11-27T06:53:09.128Z,9.91
2022-11-27T06:55:41.849Z,10.05
2022-11-27T06:58:14.544Z,9.91
2022-11-27T07:00:47.374Z,9.93
2022-11-27T07:03:20.200Z,9.89
2022-11-27T07:05:54.098Z,10.11
2022-11-27T07:08:26.799Z,10.02
2022-11-27T07:11:02.622Z,10.06
2022-11-27T07:13:35.656Z,9.97
2022-11-27T07:16:09.730Z,9.99
2022-11-27T07:18:43.710Z,10.03
2022-11-27T07:21:17.990Z,10.02
2022-11-27T07:23:51.225Z,10.04
2022-11-27T07:26:26.328Z,9.98
2022-11-27T07:29:01.462Z,10.12
2022-11-27T07:31:34.713Z,10.10
2022-11-27T07:34:17.078Z,10.06
2022-11-27T07:36:55.714Z,10.06
2022-11-27T07:40:00.408Z,10.04
2022-11-27T07:42:37.597Z,10.00
2022-11-27T07:45:14.385Z,9.87
2022-11-27T07:47:49.575Z,9.86
2022-11-27T07:50:22.829Z,9.81
2022-11-27T07:53:01.108Z,9.85
2022-11-27T07:55:34.005Z,9.82
2022-11-27T07:58:07.219Z,9.93
2022-11-27T08:00:40.148Z,9.86
2022-11-27T08:03:13.097Z,9.89
2022-11-27T08:05:47.205Z,9.93
2022-11-27T08:08:21.819Z,9.87
2022-11-27T08:10:58.344Z,9.87
2022-11-27T08:13:31.236Z,9.92
2022-11-27T08:16:04.015Z,9.81
2022-11-27T08:18:46.405Z,9.79
2022-11-27T08:21:19.361Z,9.87
2022-11-27T08:23:55.407Z,9.89
2022-11-27T08:26:28.817Z,9.87
2022-11-27T08:29:01.772Z,9.93
2022-11-27T08:31:34.934Z,9.85
2022-11-27T08:34:07.522Z,9.89
2022-11-27T08:36:40.145Z,9.97
2022-11-27T08:39:14.163Z,10.03
2022-11-27T08:41:46.935Z,10.01
2022-11-27T08:44:19.753Z,9.94
2022-11-27T08:46:52.353Z,9.99
2022-11-27T08:49:24.941Z,9.97
2022-11-27T08:51:57.744Z,9.92
2022-11-27T08:54:32.060Z,9.87
2022-11-27T08:57:06.671Z,9.92
2022-11-27T08:59:39.447Z,9.88
2022-11-27T09:02:14.460Z,9.91
2022-11-27T09:04:47.169Z,9.94
2022-11-27T09:07:19.964Z,10.01
2022-11-27T09:09:54.120Z,9.94
2022-11-27T09:12:27.613Z,9.85
2022-11-27T09:15:00.795Z,9.91
2022-11-27T09:17:33.455Z,9.92
2022-11-27T09:20:07.439Z,9.91
2022-11-27T09:22:40.025Z,9.99
2022-11-27T09:25:14.147Z,10.08
2022-11-27T09:27:46.752Z,9.98
2022-11-27T09:30:19.806Z,10.02
2022-11-27T09:32:56.074Z,10.06
2022-11-27T09:35:28.709Z,10.07
2022-11-27T09:38:01.576Z,10.03
2022-11-27T09:40:35.938Z,10.05
2022-11-27T09:43:12.305Z,10.10
2022-11-27T09:45:49.319Z,10.03
2022-11-27T09:48:25.668Z,10.01
2022-11-27T09:50:58.556Z,10.08
2022-11-27T09:53:34.053Z,10.13
2022-11-27T09:56:12.948Z,10.08
2022-11-27T09:58:48.116Z,10.20
2022-11-27T10:01:30.476Z,10.08
2022-11-27T10:04:07.467Z,10.16
2022-11-27T10:06:44.307Z,10.11
2022-11-27T10:09:19.336Z,10.26
2022-11-27T10:11:57.098Z,10.15
2022-11-27T10:14:36.649Z,10.18
2022-11-27T10:17:13.018Z,10.20
2022-11-27T10:19:51.844Z,10.10
2022-11-27T10:22:28.377Z,10.11
2022-11-27T10:25:04.407Z,10.24
2022-11-27T10:27:42.174Z,10.19
2022-11-27T10:30:19.387Z,10.28
2022-11-27T10:32:55.927Z,10.26
2022-11-27T10:35:31.883Z,10.19
2022-11-27T10:38:10.242Z,10.23
2022-11-27T10:40:46.411Z,10.16
2022-11-27T10:43:21.352Z,10.20
2022-11-27T10:45:55.876Z,10.12
2022-11-27T10:48:29.640Z,10.16
2022-11-27T10:51:02.413Z,10.21
2022-11-27T10:53:36.716Z,10.30
2022-11-27T10:56:28.548Z,10.29
2022-11-27T10:59:04.908Z,10.26
2022-11-27T11:01:44.415Z,10.27
2022-11-27T11:04:38.491Z,10.24
2022-11-27T11:07:24.957Z,10.39
2022-11-27T11:09:57.763Z,10.33
2022-11-27T11:12:30.687Z,10.43
2022-11-27T11:15:12.367Z,10.33
2022-11-27T11:17:46.339Z,10.35
2022-11-27T11:20:22.117Z,10.31
2022-11-27T11:22:56.751Z,10.38
2022-11-27T11:25:29.799Z,10.31
2022-11-27T11:28:02.582Z,10.41
2022-11-27T11:30:39.512Z,10.38
2022-11-27T11:33:15.312Z,10.37
2022-11-27T11:35:53.321Z,10.38
2022-11-27T11:38:29.662Z,10.48
2022-11-27T11:41:04.013Z,10.40
2022-11-27T11:43:41.846Z,10.48
2022-11-27T11:46:18.910Z,10.44
2022-11-27T11:48:57.038Z,10.49
2022-11-27T11:51:47.526Z,10.45
2022-11-27T11:54:27.802Z,10.44
2022-11-27T11:57:03.097Z,10.46
2022-11-27T11:59:43.712Z,10.42
2022-11-27T12:02:29.204Z,10.41
2022-11-27T12:05:14.745Z,10.50
2022-11-27T12:07:55.184Z,10.57
2022-11-27T12:10:31.894Z,10.52
2022-11-27T12:13:12.274Z,10.55
2022-11-27T12:15:50.781Z,10.54
2022-11-27T12:18:26.921Z,10.60
2022-11-27T12:21:07.399Z,10.51
2022-11-27T12:23:49.388Z,10.54
2022-11-27T12:26:27.965Z,10.56
2022-11-27T12:29:19.618Z,10.53
2022-11-27T12:31:58.914Z,10.48
2022-11-27T12:34:37.558Z,10.32
2022-11-27T12:37:19.531Z,10.44
2022-11-27T12:39:58.539Z,10.42
2022-11-27T12:42:34.485Z,10.32
2022-11-27T12:45:15.693Z,10.33
2022-11-27T12:47:50.329Z,10.43
2022-11-27T12:50:27.405Z,10.36
2022-11-27T12:53:04.790Z,10.35
2022-11-27T12:55:37.624Z,10.37
2022-11-27T12:58:13.442Z,10.34
2022-11-27T13:00:46.605Z,10.41
2022-11-27T13:03:22.504Z,10.45
2022-11-27T13:05:58.335Z,10.35
2022-11-27T13:08:38.902Z,10.33
2022-11-27T13:11:13.775Z,10.40
2022-11-27T13:13:48.697Z,10.34
2022-11-27T13:16:24.681Z,10.47
2022-11-27T13:18:58.930Z,10.47
2022-11-27T13:21:35.863Z,10.40
2022-11-27T13:24:13.169Z,10.37
2022-11-27T13:26:50.079Z,10.50
2022-11-27T13:29:26.273Z,10.43
2022-11-27T13:32:00.092Z,10.50
2022-11-27T13:34:35.816Z,10.37
2022-11-27T13:37:09.394Z,10.38
2022-11-27T13:39:43.829Z,10.39
2022-11-27T13:42:19.488Z,10.30
2022-11-27T13:44:54.718Z,10.41
2022-11-27T13:47:29.119Z,10.41
2022-11-27T13:50:03.015Z,10.40
2022-11-27T13:52:36.423Z,10.44
2022-11-27T13:55:13.799Z,10.38
2022-11-27T13:57:54.692Z,10.37
2022-11-27T14:00:34.854Z,10.43
2022-11-27T14:03:10.515Z,10.51
2022-11-27T14:05:44.286Z,10.53
2022-11-27T14:08:18.847Z,10.55
2022-11-27T14:10:55.176Z,10.49
2022-11-27T14:13:36.169Z,10.53
2022-11-27T14:16:21.054Z,10.49
2022-11-27T14:18:54.772Z,10.42
2022-11-27T14:21:40.433Z,10.48
2022-11-27T14:24:45.754Z,10.38
2022-11-27T14:27:23.453Z,10.50
2022-11-27T14:29:56.445Z,10.41
2022-11-27T14:32:35.998Z,10.42
2022-11-27T14:35:20.033Z,10.46
2022-11-27T14:37:53.122Z,10.41
2022-11-27T14:40:28.953Z,10.49
2022-11-27T14:43:09.603Z,10.45
2022-11-27T14:45:46.182Z,10.54
2022-11-27T14:48:24.124Z,10.53
2022-11-27T14:50:58.024Z,10.40
2022-11-27T14:53:31.110Z,10.41
2022-11-27T14:56:04.975Z,10.37
2022-11-27T14:58:40.528Z,10.44
2022-11-27T15:01:23.342Z,10.53
2022-11-27T15:03:59.291Z,10.39
2022-11-27T15:06:36.083Z,10.43
2022-11-27T15:09:31.323Z,10.44
2022-11-27T15:12:09.749Z,10.47
2022-11-27T15:14:57.768Z,10.50
2022-11-27T15:17:37.939Z,10.45
2022-11-27T15:20:15.186Z,10.44
2022-11-27T15:22:50.884Z,10.46
2022-11-27T15:25:34.840Z,10.46
2022-11-27T15:28:28.071Z,10.45
2022-11-27T15:31:03.388Z,10.56
2022-11-27T15:33:36.388Z,10.42
2022-11-27T15:36:26.287Z,10.43
2022-11-27T15:39:06.909Z,10.47
2022-11-27T15:41:50.980Z,10.40
2022-11-27T15:44:24.830Z,10.49
2022-11-27T15:47:01.216Z,10.49
2022-11-27T15:49:36.406Z,10.44
2022-11-27T15:52:14.880Z,10.45
2022-11-27T15:54:48.097Z,10.49
2022-11-27T15:57:21.014Z,10.44
2022-11-27T15:59:54.031Z,10.43
2022-11-27T16:02:30.523Z,10.35
2022-11-27T16:05:03.761Z,10.39
2022-11-27T16:07:36.803Z,10.47
2022-11-27T16:10:09.991Z,10.40
2022-11-27T16:12:42.809Z,10.43
2022-11-27T16:15:15.872Z,10.42
2022-11-27T16:17:50.680Z,10.39
2022-11-27T16:20:23.648Z,10.48
2022-11-27T16:22:58.013Z,10.51
2022-11-27T16:25:31.909Z,10.46
2022-11-27T16:28:05.371Z,10.52
2022-11-27T16:30:38.669Z,10.51
2022-11-27T16:33:13.186Z,10.55
2022-11-27T16:35:46.526Z,10.53
2022-11-27T16:38:20.927Z,10.54
2022-11-27T16:41:00.430Z,10.46
2022-11-27T16:43:36.736Z,10.31
2022-11-27T16:46:16.319Z,10.33
2022-11-27T16:48:51.457Z,10.48
2022-11-27T16:51:26.460Z,10.35
2022-11-27T16:54:00.105Z,10.29
2022-11-27T16:56:34.433Z,10.25
2022-11-27T16:59:13.560Z,10.33
2022-11-27T17:01:46.669Z,10.28
2022-11-27T17:04:21.383Z,10.26
2022-11-27T17:06:57.684Z,10.26
2022-11-27T17:09:34.314Z,10.19
2022-11-27T17:12:07.750Z,10.28
2022-11-27T17:14:43.504Z,10.24
2022-11-27T17:17:20.695Z,10.26
2022-11-27T17:20:00.284Z,10.29
2022-11-27T17:22:33.562Z,10.31
2022-11-27T17:25:11.037Z,10.29
2022-11-27T17:27:45.316Z,10.35
2022-11-27T17:30:18.742Z,10.27
2022-11-27T17:32:56.159Z,10.31
2022-11-27T17:35:30.713Z,10.20
2022-11-27T17:38:12.374Z,10.32
2022-11-27T17:40:48.641Z,10.31
2022-11-27T17:43:25.630Z,10.22
2022-11-27T17:46:00.227Z,10.21
2022-11-27T17:48:37.651Z,10.24
2022-11-27T17:51:12.442Z,10.23
2022-11-27T17:53:45.559Z,10.27
2022-11-27T17:56:19.730Z,10.32
2022-11-27T17:58:53.332Z,10.27
2022-11-27T18:01:29.216Z,10.29
2022-11-27T18:04:04.281Z,10.26
2022-11-27T18:06:38.790Z,10.30
2022-11-27T18:09:14.512Z,10.35
2022-11-27T18:11:51.636Z,10.32
2022-11-27T18:14:26.050Z,10.29
2022-11-27T18:17:04.317Z,10.29
2022-11-27T18:19:37.709Z,10.34
2022-11-27T18:22:13.380Z,10.40
2022-11-27T18:24:49.298Z,10.32
2022-11-27T18:27:24.493Z,10.26
2022-11-27T18:29:57.578Z,10.24
2022-11-27T18:32:30.894Z,10.18
2022-11-27T18:35:03.857Z,10.20
2022-11-27T18:39:10.678Z,12.24
2022-11-27T18:41:43.731Z,12.18
2022-11-27T18:44:16.659Z,12.19
2022-11-27T18:46:50.732Z,12.03
2022-11-27T18:49:24.851Z,11.84
2022-11-27T18:52:00.763Z,11.97
2022-11-27T18:54:37.682Z,11.79
2022-11-27T18:57:13.678Z,11.74
2022-11-27T19:00:06.752Z,11.70
2022-11-27T19:02:43.001Z,11.63
2022-11-27T19:05:16.517Z,11.68
2022-11-27T19:07:51.029Z,11.59
2022-11-27T19:10:27.628Z,11.57
2022-11-27T19:13:14.288Z,11.64
2022-11-27T19:15:50.570Z,11.61
2022-11-27T19:18:27.835Z,11.60
2022-11-27T19:21:03.110Z,11.48
2022-11-27T19:23:39.947Z,11.50
2022-11-27T19:26:22.387Z,11.58
2022-11-27T19:28:58.539Z,11.52
2022-11-27T19:31:36.664Z,11.52
2022-11-27T19:34:14.013Z,11.65
2022-11-27T19:36:48.058Z,11.58
2022-11-27T19:39:25.490Z,11.70
2022-11-27T19:42:00.363Z,11.60
2022-11-27T19:44:35.704Z,11.46
2022-11-27T19:47:30.294Z,11.48
2022-11-27T19:50:06.938Z,11.63
2022-11-27T19:52:57.606Z,11.44
2022-11-27T19:55:34.934Z,11.30
2022-11-27T19:58:22.041Z,11.32
2022-11-27T20:01:08.006Z,11.45
2022-11-27T20:03:53.681Z,11.44
2022-11-27T20:06:28.786Z,11.42
2022-11-27T20:09:05.485Z,11.39
2022-11-27T20:11:42.211Z,11.38
2022-11-27T20:14:31.709Z,11.40
2022-11-27T20:17:07.401Z,11.38
2022-11-27T20:19:41.223Z,11.35
2022-11-27T20:22:17.343Z,11.42
2022-11-27T20:25:11.630Z,11.35
2022-11-27T20:27:47.162Z,11.29
2022-11-27T20:30:25.954Z,11.41
2022-11-27T20:33:07.898Z,11.30
2022-11-27T20:35:44.881Z,11.33
2022-11-27T20:38:20.016Z,11.26
2022-11-27T20:40:57.078Z,11.36
2022-11-27T20:43:33.980Z,11.34
2022-11-27T20:46:09.137Z,11.39
2022-11-27T20:48:43.042Z,11.24
2022-11-27T20:51:21.562Z,11.27
2022-11-27T20:53:57.310Z,11.21
2022-11-27T20:56:42.009Z,11.23
2022-11-27T20:59:22.683Z,11.23
2022-11-27T21:02:03.508Z,11.27
2022-11-27T21:04:41.492Z,11.33
2022-11-27T21:07:15.123Z,11.23
2022-11-27T21:09:48.500Z,11.19
2022-11-27T21:12:22.200Z,11.20
2022-11-27T21:15:00.356Z,11.22
2022-11-27T21:17:38.244Z,11.25
2022-11-27T21:20:14.506Z,11.22
2022-11-27T21:22:47.609Z,11.25
2022-11-27T21:25:25.298Z,11.26
2022-11-27T21:27:59.563Z,11.31
2022-11-27T21:30:40.034Z,11.18
2022-11-27T21:33:16.587Z,11.31
2022-11-27T21:35:55.214Z,11.28
2022-11-27T21:38:28.733Z,11.25
2022-11-27T21:41:03.879Z,11.29
2022-11-27T21:43:36.977Z,11.26
2022-11-27T21:46:12.683Z,11.27
2022-11-27T21:48:48.903Z,11.18
2022-11-27T21:51:23.102Z,11.23
2022-11-27T21:53:58.925Z,11.25
2022-11-27T21:56:34.032Z,11.21
2022-11-27T21:59:15.156Z,11.18
2022-11-27T22:01:48.132Z,11.28
2022-11-27T22:04:22.555Z,11.32
2022-11-27T22:06:56.006Z,11.28
2022-11-27T22:09:33.235Z,11.29
2022-11-27T22:12:06.523Z,11.31
2022-11-27T22:14:39.400Z,11.27
2022-11-27T22:17:12.795Z,11.25
2022-11-27T22:19:47.872Z,11.20
2022-11-27T22:22:20.736Z,11.25
2022-11-27T22:24:53.911Z,11.13
2022-11-27T22:27:27.231Z,11.17
2022-11-27T22:30:00.030Z,11.19
2022-11-27T22:32:33.202Z,11.24
2022-11-27T22:35:08.440Z,11.21
2022-11-27T22:37:41.234Z,11.21
2022-11-27T22:40:14.960Z,11.23
2022-11-27T22:42:47.839Z,11.17
2022-11-27T22:45:21.007Z,11.20
2022-11-27T22:47:53.871Z,11.16
2022-11-27T22:50:28.105Z,11.13
2022-11-27T22:53:01.115Z,11.15
2022-11-27T22:55:35.825Z,11.15
2022-11-27T22:58:08.752Z,11.13
2022-11-27T23:00:41.625Z,11.20
2022-11-27T23:03:15.006Z,11.15
2022-11-27T23:05:50.037Z,11.20
2022-11-27T23:08:23.387Z,11.16
2022-11-27T23:10:56.284Z,11.21
2022-11-27T23:13:29.167Z,11.22
2022-11-27T23:16:02.510Z,11.13
2022-11-27T23:18:39.519Z,10.96
2022-11-27T23:21:16.131Z,11.03
2022-11-27T23:23:49.365Z,11.10
2022-11-27T23:26:24.956Z,11.10
2022-11-27T23:29:06.269Z,11.10
2022-11-27T23:31:39.793Z,11.00
2022-11-27T23:34:16.000Z,11.05
2022-11-27T23:36:50.492Z,10.94
2022-11-27T23:39:23.361Z,10.99
2022-11-27T23:41:56.335Z,10.97
2022-11-27T23:44:29.255Z,11.08
2022-11-27T23:47:02.042Z,11.10
2022-11-27T23:49:34.985Z,11.06
2022-11-27T23:52:14.283Z,11.07
2022-11-27T23:54:51.950Z,11.10
2022-11-27T23:57:24.830Z,11.13
2022-11-27T23:59:57.728Z,11.15
